Time;durP1;ratioP1;P1;durP2;ratioP2;P2;SDS_P1;SDS_P2;PMS_P1;PMS_P2;Temp;Humidity;BMP_temperature;BMP_pressure;BME280_temperature;BME280_humidity;BME280_pressure;Samples;Min_cycle;Max_cycle;Signal;HPM_P1;HPM_P2
2021/11/02 00:01:01;;;;;;;2.43;1.10;;;;;;;8.41;84.12;99121.34;4992546;28;20736;-76
2021/11/02 00:03:27;;;;;;;3.87;1.60;;;;;;;8.38;83.57;99123.97;4992615;28;20298;-76
2021/11/02 00:05:55;;;;;;;2.93;1.50;;;;;;;8.39;83.56;99123.09;4992539;28;20238;-77
2021/11/02 00:08:21;;;;;;;2.23;1.37;;;;;;;8.40;84.14;99118.75;4992431;28;20325;-76
2021/11/02 00:10:48;;;;;;;2.37;1.40;;;;;;;8.39;84.15;99115.28;4992640;28;20315;-76
2021/11/02 00:13:19;;;;;;;2.07;1.13;;;;;;;8.40;83.92;99123.94;4992295;28;20207;-76
2021/11/02 00:15:52;;;;;;;2.13;1.10;;;;;;;8.37;83.86;99126.66;4991847;28;20270;-76
2021/11/02 00:18:20;;;;;;;4.63;1.33;;;;;;;8.39;83.84;99119.66;4990823;28;20702;-77
2021/11/02 00:20:46;;;;;;;2.37;1.50;;;;;;;8.36;84.53;99117.97;4992390;28;20207;-76
2021/11/02 00:23:14;;;;;;;4.27;1.40;;;;;;;8.28;84.50;99106.97;4987164;28;20254;-76
2021/11/02 00:25:40;;;;;;;2.73;1.27;;;;;;;8.27;84.33;99110.50;4992271;28;20670;-76
2021/11/02 00:28:07;;;;;;;3.87;1.50;;;;;;;8.26;83.86;99117.41;4991594;28;20283;-76
2021/11/02 00:30:33;;;;;;;2.57;1.10;;;;;;;8.27;84.18;99120.88;4991507;28;21353;-77
2021/11/02 00:33:01;;;;;;;1.63;1.30;;;;;;;8.16;84.28;99113.41;4992416;28;20215;-76
2021/11/02 00:35:27;;;;;;;1.67;1.17;;;;;;;8.07;84.21;99106.75;4992336;28;20211;-76
2021/11/02 00:37:55;;;;;;;2.00;1.33;;;;;;;8.08;84.51;99098.03;4992307;28;20211;-76
2021/11/02 00:40:23;;;;;;;2.30;1.30;;;;;;;8.06;84.92;99099.84;4991682;28;20289;-77
2021/11/02 00:42:52;;;;;;;4.20;1.37;;;;;;;8.03;84.84;99079.16;4991745;28;20262;-76
2021/11/02 00:45:28;;;;;;;1.53;1.43;;;;;;;8.02;85.01;99067.03;4972947;28;20301;-76
2021/11/02 00:47:55;;;;;;;3.70;1.30;;;;;;;8.04;85.26;99051.41;4990866;28;20199;-76
2021/11/02 00:50:22;;;;;;;1.33;1.07;;;;;;;8.02;85.01;99056.66;4992098;28;20227;-76
2021/11/02 00:52:48;;;;;;;3.43;1.20;;;;;;;7.97;85.22;99055.97;4991977;28;20200;-77
2021/11/02 00:55:15;;;;;;;1.53;1.40;;;;;;;7.98;85.17;99054.19;4999354;28;20249;-76
2021/11/02 00:57:43;;;;;;;3.63;1.33;;;;;;;7.94;85.74;99030.91;5002280;28;20239;-76
2021/11/02 01:00:12;;;;;;;2.23;1.40;;;;;;;7.89;85.87;99009.41;4997295;28;20223;-76
2021/11/02 01:02:38;;;;;;;2.40;1.47;;;;;;;7.92;85.74;99030.09;5001050;28;20199;-77
2021/11/02 01:05:07;;;;;;;1.93;1.37;;;;;;;7.95;84.88;99042.16;5002273;28;20262;-76
2021/11/02 01:07:34;;;;;;;4.17;1.27;;;;;;;7.90;85.95;99044.03;5001062;28;20245;-76
2021/11/02 01:10:01;;;;;;;3.50;1.50;;;;;;;7.90;85.21;99039.69;5000192;28;20325;-76
2021/11/02 01:12:28;;;;;;;1.97;1.50;;;;;;;7.95;84.72;99042.16;5002494;28;20214;-76
2021/11/02 01:14:56;;;;;;;2.33;1.23;;;;;;;7.94;84.74;99043.03;4999287;28;20233;-76
2021/11/02 01:17:22;;;;;;;3.27;1.50;;;;;;;7.95;84.98;99047.34;5001862;28;20207;-76
2021/11/02 01:19:48;;;;;;;2.87;1.20;;;;;;;7.94;85.22;99056.88;5002796;28;20219;-76
2021/11/02 01:22:15;;;;;;;1.60;1.30;;;;;;;7.92;84.56;99060.44;5004282;28;20208;-76
2021/11/02 01:24:41;;;;;;;2.10;1.57;;;;;;;7.89;84.71;99057.94;5001998;28;20674;-76
2021/11/02 01:27:08;;;;;;;1.93;1.20;;;;;;;7.88;84.90;99049.28;5005906;28;20202;-76
2021/11/02 01:29:34;;;;;;;4.17;1.60;;;;;;;7.84;84.59;99046.81;5004291;28;20211;-76
2021/11/02 01:32:02;;;;;;;3.23;1.23;;;;;;;7.83;84.92;99027.81;5004048;28;20257;-76
2021/11/02 01:34:28;;;;;;;2.63;1.70;;;;;;;7.82;85.42;99018.28;5005818;28;20618;-76
2021/11/02 01:36:55;;;;;;;2.00;1.30;;;;;;;7.85;85.15;99023.41;5004094;28;20203;-76
2021/11/02 01:39:21;;;;;;;4.97;1.53;;;;;;;7.82;84.98;99023.47;5003821;28;20227;-77
2021/11/02 01:41:48;;;;;;;4.00;1.43;;;;;;;7.81;85.54;99013.13;5003397;28;20697;-76
2021/11/02 01:44:14;;;;;;;1.37;1.10;;;;;;;7.77;85.22;99012.41;5005051;28;20195;-76
2021/11/02 01:46:44;;;;;;;2.07;1.27;;;;;;;7.75;85.33;99007.25;5005089;28;20203;-76
2021/11/02 01:49:12;;;;;;;2.30;1.27;;;;;;;7.73;85.90;99003.84;5000645;28;20710;-76
2021/11/02 01:51:40;;;;;;;3.60;1.57;;;;;;;7.74;85.43;99002.94;5002734;28;20203;-76
2021/11/02 01:54:07;;;;;;;1.63;1.30;;;;;;;7.75;85.66;99006.41;5000887;28;20211;-76
2021/11/02 01:56:35;;;;;;;1.87;1.10;;;;;;;7.73;85.50;98996.06;5004756;28;20249;-76
2021/11/02 01:59:03;;;;;;;3.60;1.73;;;;;;;7.79;85.59;98999.34;5004204;28;20223;-76
2021/11/02 02:01:37;;;;;;;1.93;1.30;;;;;;;7.74;86.52;98982.16;5003157;28;20679;-76
2021/11/02 02:04:11;;;;;;;4.10;1.10;;;;;;;7.74;86.51;98982.16;5002961;28;20674;-76
2021/11/02 02:06:46;;;;;;;2.10;1.33;;;;;;;7.73;86.56;98985.66;5001019;28;20673;-76
2021/11/02 02:09:20;;;;;;;1.77;1.30;;;;;;;7.68;86.71;98965.94;4998693;28;20634;-76
2021/11/02 02:11:56;;;;;;;2.37;1.30;;;;;;;7.68;86.30;98971.13;5003204;28;20199;-77
2021/11/02 02:14:33;;;;;;;2.47;1.20;;;;;;;7.70;85.91;98980.56;5003006;28;20199;-76
2021/11/02 02:17:02;;;;;;;1.93;1.10;;;;;;;7.67;85.92;98996.25;5002896;28;20614;-76
2021/11/02 02:19:45;;;;;;;3.00;1.20;;;;;;;7.65;86.59;98979.88;5008115;28;20651;-76
2021/11/02 02:22:27;;;;;;;1.00;0.90;;;;;;;7.70;85.82;98984.91;5007729;28;20204;-76
2021/11/02 02:25:17;;;;;;;3.70;1.30;;;;;;;7.68;86.53;98984.94;4993999;28;20339;-77
2021/11/02 02:28:16;;;;;;;4.20;1.10;;;;;;;7.70;85.70;98987.50;4994267;28;20266;-76
2021/11/02 02:30:49;;;;;;;2.17;1.40;;;;;;;7.71;85.60;98992.66;4981023;28;20313;-76
2021/11/02 02:33:18;;;;;;;2.77;2.07;;;;;;;7.72;86.01;98980.50;4994134;28;20315;-77
2021/11/02 02:35:46;;;;;;;2.77;1.30;;;;;;;7.67;86.27;98980.66;4994709;28;20215;-76
2021/11/02 02:38:14;;;;;;;4.23;1.23;;;;;;;7.68;86.29;98976.31;4994140;28;20258;-76
2021/11/02 02:40:41;;;;;;;2.07;1.10;;;;;;;7.64;86.15;98985.94;4994328;28;20230;-76
2021/11/02 02:43:08;;;;;;;2.50;1.20;;;;;;;7.66;86.44;98981.53;4994243;28;20214;-77
2021/11/02 02:45:37;;;;;;;4.37;2.00;;;;;;;7.63;87.45;98953.09;4994161;28;20255;-76
2021/11/02 02:48:05;;;;;;;4.20;1.33;;;;;;;7.70;87.39;98933.81;4993531;28;20208;-76
2021/11/02 02:50:33;;;;;;;3.03;2.13;;;;;;;7.71;86.96;98939.84;4993894;28;20232;-76
2021/11/02 02:53:02;;;;;;;2.00;1.83;;;;;;;7.69;87.99;98923.47;4993841;28;20265;-76
2021/11/02 02:55:30;;;;;;;1.30;1.20;;;;;;;7.71;87.75;98927.72;4993692;28;20597;-76
2021/11/02 02:57:57;;;;;;;4.10;1.43;;;;;;;7.72;86.67;98934.59;4993155;28;20208;-76
2021/11/02 03:00:24;;;;;;;2.83;1.77;;;;;;;7.74;86.49;98945.78;4993085;28;20235;-76
2021/11/02 03:02:52;;;;;;;1.73;1.50;;;;;;;7.71;86.85;98942.44;4993871;28;20203;-76
2021/11/02 03:05:24;;;;;;;3.53;1.90;;;;;;;7.62;87.54;98924.56;4993849;28;20207;-76
2021/11/02 03:07:54;;;;;;;3.53;1.97;;;;;;;7.63;87.59;98911.53;4993620;28;20211;-77
2021/11/02 03:10:21;;;;;;;1.87;1.20;;;;;;;7.64;87.85;98905.44;4993478;28;20231;-76
2021/11/02 03:12:50;;;;;;;1.57;1.37;;;;;;;7.61;88.12;98913.34;4993571;28;20215;-77
2021/11/02 03:15:43;;;;;;;2.67;2.03;;;;;;;7.64;87.93;98902.00;4993235;28;20210;-76
2021/11/02 03:18:24;;;;;;;1.63;1.20;;;;;;;7.62;88.27;98899.44;4993000;28;20231;-75
2021/11/02 03:49:03;;;;;;;4.17;2.10;;;;;;;7.53;87.41;98916.16;4932356;29;20265;-76
2021/11/02 03:51:50;;;;;;;7.10;2.20;;;;;;;7.51;87.44;98912.78;4958293;28;20321;-76
2021/11/02 03:54:37;;;;;;;2.90;1.83;;;;;;;7.53;87.67;98907.50;4985425;28;20222;-76
2021/11/02 03:57:14;;;;;;;2.53;1.67;;;;;;;7.53;88.02;98913.56;4992408;28;20208;-76
2021/11/02 04:25:28;;;;;;;3.53;1.87;;;;;;;7.58;87.34;98948.94;4974949;28;20291;-76
2021/11/02 04:28:04;;;;;;;3.97;2.17;;;;;;;7.54;87.29;98963.75;4991892;28;20234;-77
2021/11/02 04:30:51;;;;;;;3.53;1.70;;;;;;;7.50;87.28;98965.59;4992010;28;20227;-76
2021/11/02 05:09:30;;;;;;;4.37;3.27;;;;;;;7.26;88.43;98912.66;4995174;28;20354;-76
2021/11/02 05:12:33;;;;;;;5.20;4.03;;;;;;;7.21;88.62;98914.53;4995796;28;20206;-76
2021/11/02 05:48:04;;;;;;;5.47;4.97;;;;;;;7.10;89.76;98909.69;4995274;28;20214;-76
2021/11/02 05:53:40;;;;;;;6.47;5.67;;;;;;;7.18;89.46;98906.84;4940725;29;20214;-77
2021/11/02 05:56:19;;;;;;;8.93;5.73;;;;;;;7.26;88.42;98911.81;4985470;28;20254;-76
2021/11/02 05:58:51;;;;;;;5.93;5.33;;;;;;;7.33;88.46;98916.78;4994507;28;20342;-77
2021/11/02 06:01:27;;;;;;;5.13;4.73;;;;;;;7.38;89.06;98916.63;4994695;28;20255;-76
2021/11/02 06:03:58;;;;;;;4.97;4.57;;;;;;;7.40;89.06;98921.78;4994271;28;20261;-76
2021/11/02 06:06:37;;;;;;;4.80;4.20;;;;;;;7.42;88.50;98926.03;4995099;28;20289;-76
2021/11/02 06:09:19;;;;;;;5.27;4.77;;;;;;;7.35;89.69;98909.81;4994497;28;20709;-77
2021/11/02 06:27:42;;;;;;;7.77;4.87;;;;;;;7.31;90.37;98887.44;4983602;28;20215;-76
2021/11/02 06:29:15;;;;;;;8.50;4.50;;;;;;;7.45;89.74;98893.91;4993955;28;20232;-76
2021/11/02 06:31:51;;;;;;;9.20;5.60;;;;;;;7.53;89.38;98905.78;4994034;28;20204;-76
2021/11/02 06:34:21;;;;;;;4.90;4.50;;;;;;;7.59;89.29;98924.66;4994475;28;20290;-76
2021/11/02 06:37:10;;;;;;;6.13;5.17;;;;;;;7.64;88.61;98931.41;4994022;28;20242;-76
2021/11/02 06:39:47;;;;;;;5.37;4.87;;;;;;;7.69;88.48;98946.84;4993777;28;20796;-76
2021/11/02 06:48:00;;;;;;;5.47;4.37;;;;;;;7.88;87.88;98960.94;4994210;28;20230;-76
2021/11/02 06:56:34;;;;;;;4.67;4.27;;;;;;;8.01;88.25;98964.00;5088218;28;20204;-74
2021/11/02 07:18:57;;;;;;;4.70;4.30;;;;;;;8.09;88.73;98933.44;5038645;28;20278;-76
2021/11/02 07:21:28;;;;;;;3.90;3.57;;;;;;;8.13;88.19;98942.81;5066573;28;20278;-76
2021/11/02 07:24:00;;;;;;;4.97;4.40;;;;;;;8.14;88.07;98964.44;5068247;28;20208;-75
2021/11/02 07:26:43;;;;;;;4.40;3.97;;;;;;;8.28;87.65;98966.59;5068219;28;20204;-75
2021/11/02 08:47:22;;;;;;;4.53;3.47;;;;;;;9.57;84.24;99089.63;5045910;28;20781;-76
2021/11/02 08:49:50;;;;;;;3.90;3.07;;;;;;;9.59;83.41;99108.66;5045634;28;20313;-76
2021/11/02 08:52:20;;;;;;;3.67;2.97;;;;;;;9.61;83.38;99099.03;5050717;28;20236;-77
2021/11/02 08:54:48;;;;;;;4.23;3.00;;;;;;;9.63;83.26;99098.97;5047168;28;20208;-76
2021/11/02 08:57:15;;;;;;;4.03;3.37;;;;;;;9.69;82.52;99111.78;5043899;28;20202;-75
2021/11/02 08:59:41;;;;;;;3.93;3.27;;;;;;;9.81;82.18;99128.72;5042471;28;20266;-76
2021/11/02 09:02:09;;;;;;;3.50;3.20;;;;;;;9.66;82.15;99151.00;5043406;28;20189;-77
2021/11/02 09:04:41;;;;;;;3.57;2.93;;;;;;;9.70;81.79;99148.22;5044403;28;20194;-75
2021/11/02 09:07:13;;;;;;;3.47;2.93;;;;;;;9.73;81.67;99149.84;5043824;28;20669;-77
2021/11/02 09:09:41;;;;;;;4.67;3.87;;;;;;;9.74;82.73;99136.78;5043928;28;20566;-76
2021/11/02 09:12:09;;;;;;;4.43;3.00;;;;;;;9.86;82.78;99117.22;5042113;28;20601;-78
2021/11/02 09:14:38;;;;;;;4.63;3.07;;;;;;;9.80;81.89;99153.09;5041528;28;20198;-76
2021/11/02 09:17:06;;;;;;;4.77;3.40;;;;;;;9.94;81.84;99148.22;5043505;28;20668;-76
2021/11/02 09:19:36;;;;;;;2.90;2.70;;;;;;;9.87;81.01;99168.47;5043864;28;20629;-76
2021/11/02 09:22:04;;;;;;;3.80;2.77;;;;;;;10.00;81.66;99163.63;5050075;28;20201;-75
2021/11/02 09:24:32;;;;;;;3.20;2.63;;;;;;;10.06;80.80;99173.00;5044217;28;20331;-76
2021/11/02 09:26:59;;;;;;;3.03;2.83;;;;;;;10.18;80.78;99175.13;5041542;28;20212;-76
2021/11/02 09:29:26;;;;;;;5.50;2.80;;;;;;;10.28;80.79;99166.03;5043313;28;20235;-76
2021/11/02 09:31:53;;;;;;;3.87;2.83;;;;;;;10.10;79.51;99217.13;5041734;28;20252;-76
2021/11/02 09:34:20;;;;;;;4.70;2.50;;;;;;;10.18;80.11;99203.81;5041384;28;20194;-76
2021/11/02 09:37:05;;;;;;;2.77;2.50;;;;;;;10.34;80.92;99168.44;5042588;28;20205;-75
2021/11/02 09:39:40;;;;;;;2.97;2.67;;;;;;;10.26;79.40;99214.81;5045726;28;20232;-76
2021/11/02 09:42:27;;;;;;;3.73;2.30;;;;;;;10.30;79.07;99249.47;5044711;28;20199;-76
2021/11/02 09:45:23;;;;;;;3.50;2.50;;;;;;;10.32;79.06;99245.91;5044848;28;20251;-76
2021/11/02 09:48:14;;;;;;;3.00;2.50;;;;;;;10.26;78.16;99263.50;5047806;28;20237;-75
2021/11/02 09:51:14;;;;;;;3.00;2.57;;;;;;;10.30;79.22;99239.06;5051079;28;20210;-76
2021/11/02 09:54:23;;;;;;;3.00;2.50;;;;;;;10.57;78.14;99249.38;5047969;28;20260;-76
2021/11/02 09:57:22;;;;;;;2.40;2.20;;;;;;;10.60;77.25;99296.22;5015242;28;20206;-76
2021/11/02 10:00:03;;;;;;;2.93;2.63;;;;;;;10.38;77.47;99317.03;5031933;28;20227;-76
2021/11/02 10:03:13;;;;;;;4.53;2.37;;;;;;;10.33;77.25;99314.59;5051982;28;20243;-76
2021/11/02 10:06:12;;;;;;;2.53;2.20;;;;;;;10.37;77.13;99312.72;5032304;28;20256;-76
2021/11/02 10:08:45;;;;;;;3.40;2.53;;;;;;;10.44;78.47;99260.25;5030269;28;20230;-76
2021/11/02 10:11:23;;;;;;;3.10;2.23;;;;;;;10.55;77.25;99295.53;5042912;28;20667;-76
2021/11/02 10:14:10;;;;;;;2.40;1.90;;;;;;;10.68;76.62;99317.66;5051484;28;20589;-76
2021/11/02 10:16:59;;;;;;;2.57;1.97;;;;;;;10.66;76.24;99333.38;5051716;28;20253;-75
2021/11/02 10:20:01;;;;;;;2.00;1.80;;;;;;;10.86;75.98;99329.16;5061961;28;20727;-76
2021/11/02 10:22:54;;;;;;;3.57;2.27;;;;;;;10.99;75.95;99335.63;5045701;28;20201;-77
2021/11/02 10:25:45;;;;;;;2.83;2.17;;;;;;;11.01;74.89;99377.34;5035882;28;20205;-76
2021/11/02 10:28:31;;;;;;;2.37;2.00;;;;;;;11.15;75.58;99348.94;5050964;28;20197;-76
2021/11/02 10:31:02;;;;;;;3.30;2.10;;;;;;;11.06;75.76;99357.09;5051569;28;20279;-76
2021/11/02 10:33:31;;;;;;;3.37;2.40;;;;;;;11.19;75.85;99337.44;5051464;28;20243;-76
2021/11/02 10:36:17;;;;;;;3.37;2.63;;;;;;;11.19;73.26;99415.81;5051499;28;20256;-76
2021/11/02 10:38:57;;;;;;;3.10;2.80;;;;;;;10.99;73.42;99439.22;5050871;28;20754;-75
2021/11/02 10:41:32;;;;;;;2.60;2.40;;;;;;;11.09;74.02;99417.06;5050280;28;20208;-75
2021/11/02 10:44:10;;;;;;;2.43;2.13;;;;;;;11.21;74.26;99381.81;5051332;28;20208;-76
2021/11/02 10:46:44;;;;;;;2.47;2.27;;;;;;;11.20;72.51;99433.19;5051684;28;20210;-76
2021/11/02 10:49:25;;;;;;;3.27;2.27;;;;;;;11.11;73.29;99423.09;5051051;28;20248;-76
2021/11/02 10:52:02;;;;;;;3.23;2.20;;;;;;;11.13;73.40;99416.88;5051101;28;20219;-76
2021/11/02 10:54:51;;;;;;;2.10;2.00;;;;;;;10.88;72.73;99447.44;5051036;28;20197;-76
2021/11/02 10:57:40;;;;;;;2.30;2.10;;;;;;;10.64;74.64;99402.19;5050002;28;20292;-75
2021/11/02 11:00:08;;;;;;;2.57;2.37;;;;;;;10.68;74.30;99388.13;5052114;28;20221;-76
2021/11/02 11:02:38;;;;;;;4.00;2.43;;;;;;;10.63;74.57;99364.81;5047772;28;20246;-75
2021/11/02 11:05:07;;;;;;;2.30;2.10;;;;;;;10.76;74.97;99343.47;5051210;28;20205;-76
2021/11/02 11:07:36;;;;;;;4.20;2.47;;;;;;;10.93;74.49;99364.56;5050560;28;20766;-75
2021/11/02 11:10:05;;;;;;;5.90;1.83;;;;;;;10.93;73.57;99388.06;5048867;28;20232;-75
2021/11/02 11:12:35;;;;;;;2.90;2.57;;;;;;;10.96;74.32;99374.91;5031445;28;20221;-75
2021/11/02 11:15:04;;;;;;;2.37;2.13;;;;;;;11.19;74.37;99374.03;5033511;28;20264;-75
2021/11/02 11:17:33;;;;;;;2.60;2.40;;;;;;;11.21;74.10;99398.31;5051004;28;20202;-76
2021/11/02 11:20:08;;;;;;;2.53;2.17;;;;;;;11.41;73.80;99396.69;5050437;28;20231;-75
2021/11/02 11:22:43;;;;;;;3.13;2.83;;;;;;;11.55;73.36;99409.22;4351927;28;10000778;-75
2021/11/02 11:25:13;;;;;;;2.60;2.33;;;;;;;11.52;72.93;99438.94;5047394;28;20197;-75
2021/11/02 11:27:47;;;;;;;2.60;2.40;;;;;;;11.55;72.91;99432.75;5047578;28;20206;-76
2021/11/02 11:30:15;;;;;;;2.77;2.30;;;;;;;11.55;72.75;99430.97;5039044;28;20226;-75
2021/11/02 11:32:43;;;;;;;3.03;2.30;;;;;;;11.66;73.36;99428.81;5027773;28;20226;-75
2021/11/02 11:35:11;;;;;;;2.43;2.23;;;;;;;11.39;71.78;99467.31;5027827;28;20666;-75
2021/11/02 11:37:40;;;;;;;2.40;2.20;;;;;;;11.43;73.02;99439.28;5028064;28;20237;-75
2021/11/02 11:40:09;;;;;;;2.70;2.10;;;;;;;11.53;73.21;99418.00;5031991;28;20234;-75
2021/11/02 11:42:37;;;;;;;4.13;2.47;;;;;;;11.67;72.78;99411.34;5051771;28;20241;-75
2021/11/02 11:45:08;;;;;;;2.80;2.17;;;;;;;11.77;72.28;99432.75;5051470;28;20606;-75
2021/11/02 11:47:35;;;;;;;2.50;2.30;;;;;;;11.62;72.71;99423.75;5049885;28;20734;-75
2021/11/02 11:50:18;;;;;;;3.67;2.87;;;;;;;11.26;73.05;99427.75;5051328;28;20233;-76
2021/11/02 11:52:46;;;;;;;3.60;2.50;;;;;;;11.12;73.38;99407.38;5051177;28;20748;-75
2021/11/02 11:55:19;;;;;;;3.07;2.50;;;;;;;10.71;73.77;99391.47;5033708;28;20213;-75
2021/11/02 11:57:46;;;;;;;3.47;2.23;;;;;;;10.70;75.03;99334.97;5050979;28;20260;-75
2021/11/02 12:00:13;;;;;;;3.07;2.30;;;;;;;10.87;75.71;99318.66;5051402;28;20223;-75
2021/11/02 12:02:46;;;;;;;2.80;2.50;;;;;;;10.78;75.18;99321.59;5050464;28;20213;-75
2021/11/02 12:05:18;;;;;;;2.40;2.20;;;;;;;10.92;75.25;99328.91;5050447;28;20627;-75
2021/11/02 12:07:57;;;;;;;3.00;2.60;;;;;;;11.01;74.95;99333.78;5029593;28;20264;-75
2021/11/02 12:10:26;;;;;;;2.47;2.27;;;;;;;11.08;74.83;99330.03;5033347;28;20245;-75
2021/11/02 12:12:56;;;;;;;3.63;2.40;;;;;;;10.80;74.59;99352.88;5050735;28;20229;-75
2021/11/02 12:15:23;;;;;;;3.00;2.10;;;;;;;10.78;74.91;99349.47;5051047;28;20376;-75
2021/11/02 12:17:51;;;;;;;2.03;1.93;;;;;;;10.77;75.16;99329.53;5050732;28;20267;-75
2021/11/02 12:20:19;;;;;;;2.70;2.50;;;;;;;10.84;76.16;99297.91;5050643;28;20781;-75
2021/11/02 12:22:51;;;;;;;4.30;2.00;;;;;;;11.01;76.14;99296.41;5050385;28;20209;-75
2021/11/02 12:25:22;;;;;;;3.20;1.80;;;;;;;11.10;75.72;99307.34;5032768;28;20233;-75
2021/11/02 12:27:49;;;;;;;2.73;2.17;;;;;;;11.20;75.37;99323.50;5050374;28;20301;-75
2021/11/02 12:30:19;;;;;;;2.90;2.07;;;;;;;11.12;74.03;99355.13;5050471;28;20221;-75
2021/11/02 12:32:51;;;;;;;3.10;1.70;;;;;;;11.15;74.42;99359.38;5050675;28;20226;-75
2021/11/02 12:35:34;;;;;;;1.83;1.73;;;;;;;11.19;74.37;99355.72;5050467;28;20278;-75
2021/11/02 12:38:04;;;;;;;2.20;1.97;;;;;;;11.18;74.17;99361.00;5049904;28;20684;-75
2021/11/02 12:40:34;;;;;;;2.40;1.70;;;;;;;11.27;74.60;99345.00;5049853;28;20218;-75
2021/11/02 12:43:01;;;;;;;2.57;1.90;;;;;;;11.35;74.21;99349.91;5049645;28;20197;-75
2021/11/02 12:45:29;;;;;;;1.93;1.80;;;;;;;11.37;73.46;99369.84;5049925;28;20264;-75
2021/11/02 12:48:01;;;;;;;2.30;1.80;;;;;;;11.41;73.76;99379.25;5050099;28;20681;-75
2021/11/02 12:50:35;;;;;;;1.77;1.60;;;;;;;11.39;72.84;99406.34;5049842;28;20229;-75
2021/11/02 12:53:03;;;;;;;2.57;1.50;;;;;;;11.30;73.37;99403.19;5049549;28;20739;-75
2021/11/02 12:55:31;;;;;;;1.93;1.73;;;;;;;11.32;73.48;99387.47;5049505;28;20197;-75
2021/11/02 12:58:14;;;;;;;2.07;1.70;;;;;;;11.31;72.87;99390.97;5049748;28;20695;-76
2021/11/02 13:00:43;;;;;;;3.47;1.40;;;;;;;11.21;72.22;99415.75;5030302;28;20207;-76
2021/11/02 13:03:20;;;;;;;1.70;1.30;;;;;;;11.22;71.80;99417.44;5030276;28;20203;-75
2021/11/02 13:05:57;;;;;;;1.60;1.40;;;;;;;11.05;72.16;99421.56;5029348;28;20263;-75
2021/11/02 13:08:32;;;;;;;1.97;1.57;;;;;;;11.11;72.52;99408.25;5030132;28;20202;-76
2021/11/02 13:11:04;;;;;;;1.63;1.53;;;;;;;11.23;72.73;99398.25;5037087;28;20212;-77
2021/11/02 13:13:41;;;;;;;2.20;1.50;;;;;;;11.01;72.55;99406.91;5049470;28;20279;-76
2021/11/02 13:16:08;;;;;;;1.63;1.40;;;;;;;11.12;73.36;99389.09;5050564;28;20208;-76
2021/11/02 13:18:37;;;;;;;1.30;1.20;;;;;;;11.13;73.10;99387.31;5049953;28;20225;-76
2021/11/02 13:21:22;;;;;;;1.90;1.70;;;;;;;11.21;73.04;99395.69;5050290;28;20324;-76
2021/11/02 13:23:54;;;;;;;2.27;1.20;;;;;;;11.09;72.50;99417.06;5046488;28;20203;-76
2021/11/02 13:26:22;;;;;;;1.93;1.30;;;;;;;11.01;72.59;99409.53;5049201;28;20283;-76
2021/11/02 13:28:50;;;;;;;1.90;1.50;;;;;;;10.84;73.16;99393.63;5048663;28;20267;-76
2021/11/02 13:31:26;;;;;;;1.77;1.43;;;;;;;10.77;73.60;99371.28;5049813;28;20239;-76
2021/11/02 13:33:57;;;;;;;1.60;1.50;;;;;;;10.92;73.99;99355.91;5049605;28;20936;-76
2021/11/02 13:36:25;;;;;;;1.73;1.30;;;;;;;11.07;74.28;99346.63;5049898;28;20284;-79
2021/11/02 13:38:59;;;;;;;2.07;1.30;;;;;;;11.25;74.24;99346.81;5050685;28;20783;-76
2021/11/02 13:41:27;;;;;;;1.40;1.30;;;;;;;11.25;72.96;99384.22;5049444;28;20311;-76
2021/11/02 13:43:56;;;;;;;1.83;1.33;;;;;;;11.18;71.65;99419.34;5049429;28;20600;-76
2021/11/02 13:46:25;;;;;;;1.53;1.43;;;;;;;11.02;72.94;99411.25;5049715;28;20215;-76
2021/11/02 13:48:51;;;;;;;2.27;1.53;;;;;;;11.10;72.67;99403.13;5049116;28;20225;-76
2021/11/02 13:51:19;;;;;;;1.50;1.40;;;;;;;11.24;72.69;99407.81;5049095;28;20290;-76
2021/11/02 13:53:48;;;;;;;1.70;1.60;;;;;;;11.25;72.17;99428.63;5049540;28;20217;-77
2021/11/02 13:56:17;;;;;;;1.47;1.37;;;;;;;11.45;72.26;99422.63;5049820;28;20211;-76
2021/11/02 13:58:43;;;;;;;1.73;1.40;;;;;;;11.61;72.04;99433.34;5048696;28;20225;-76
2021/11/02 14:01:18;;;;;;;1.60;1.40;;;;;;;11.30;70.45;99499.88;5048834;28;20221;-76
2021/11/02 14:03:50;;;;;;;1.60;1.50;;;;;;;11.55;71.54;99446.66;5049472;28;20201;-76
2021/11/02 14:06:19;;;;;;;1.70;1.60;;;;;;;11.37;70.13;99487.41;5049263;28;20828;-76
2021/11/02 14:08:48;;;;;;;2.27;1.40;;;;;;;11.47;70.44;99483.53;5042465;28;20315;-76
2021/11/02 14:11:21;;;;;;;2.17;1.73;;;;;;;11.41;70.43;99507.28;5038285;28;20208;-76
2021/11/02 14:13:49;;;;;;;4.17;1.60;;;;;;;11.38;70.45;99507.41;5037713;28;20222;-76
2021/11/02 14:16:27;;;;;;;1.60;1.50;;;;;;;11.49;70.53;99491.31;5038817;28;20227;-76
2021/11/02 14:18:53;;;;;;;1.80;1.53;;;;;;;11.50;70.34;99503.50;5038987;28;20222;-76
2021/11/02 14:21:48;;;;;;;1.40;1.20;;;;;;;11.31;69.54;99535.50;5044121;28;20201;-76
2021/11/02 14:24:29;;;;;;;2.07;1.33;;;;;;;11.15;70.73;99500.41;5045641;28;20202;-77
2021/11/02 14:26:55;;;;;;;1.17;1.17;;;;;;;11.18;70.77;99482.03;5039458;28;20602;-76
2021/11/02 14:29:49;;;;;;;2.30;1.63;;;;;;;11.43;71.05;99468.03;5038146;28;20265;-76
2021/11/02 14:32:44;;;;;;;2.80;1.50;;;;;;;11.56;69.39;99497.19;5040205;28;20208;-76
2021/11/02 14:35:11;;;;;;;3.57;1.50;;;;;;;11.31;69.57;99540.75;5039147;28;20269;-76
2021/11/02 14:37:47;;;;;;;1.50;1.30;;;;;;;11.07;69.95;99526.81;5038371;28;20206;-76
2021/11/02 14:40:30;;;;;;;1.40;1.30;;;;;;;11.13;70.34;99508.31;5038781;28;20254;-76
2021/11/02 14:42:59;;;;;;;2.67;2.10;;;;;;;11.01;70.40;99500.91;5039478;28;20618;-76
2021/11/02 14:45:39;;;;;;;1.80;1.53;;;;;;;10.96;71.17;99470.66;5039312;28;20205;-76
2021/11/02 14:48:44;;;;;;;1.90;1.50;;;;;;;11.02;72.19;99429.50;5039047;28;20288;-77
2021/11/02 14:51:26;;;;;;;1.77;1.27;;;;;;;11.12;72.61;99420.44;5036366;28;20232;-76
2021/11/02 14:53:55;;;;;;;2.57;1.37;;;;;;;11.18;72.70;99413.25;5044422;28;20224;-76
2021/11/02 14:56:34;;;;;;;1.63;1.27;;;;;;;11.15;73.36;99389.88;5038473;28;20209;-76
2021/11/02 14:59:02;;;;;;;1.50;1.40;;;;;;;11.13;73.73;99374.25;5038636;28;20253;-76
2021/11/02 15:02:04;;;;;;;1.00;0.90;;;;;;;11.10;73.84;99372.63;5037107;28;20199;-76
2021/11/02 15:04:30;;;;;;;2.27;1.33;;;;;;;11.10;74.14;99350.88;5037624;28;20203;-76
2021/11/02 15:07:00;;;;;;;1.80;1.03;;;;;;;11.04;74.37;99349.34;5038700;28;20207;-77
2021/11/02 15:09:30;;;;;;;6.27;1.90;;;;;;;11.01;74.62;99343.41;5033246;28;20225;-77
2021/11/02 15:11:59;;;;;;;5.27;1.90;;;;;;;11.04;74.92;99333.69;5044033;28;20240;-76
2021/11/02 15:14:28;;;;;;;3.03;1.77;;;;;;;10.97;75.08;99332.22;5051131;28;20226;-77
2021/11/02 15:16:56;;;;;;;3.33;1.50;;;;;;;11.02;75.22;99321.56;5052435;28;20201;-76
2021/11/02 15:19:25;;;;;;;2.37;1.03;;;;;;;10.99;75.27;99338.22;5051984;28;20232;-76
2021/11/02 15:21:54;;;;;;;1.20;1.10;;;;;;;10.91;75.49;99330.69;5051276;28;20213;-76
2021/11/02 15:24:22;;;;;;;1.30;0.97;;;;;;;10.87;75.58;99320.44;5052244;28;20213;-76
2021/11/02 15:26:52;;;;;;;1.20;1.10;;;;;;;10.84;75.57;99324.00;5052382;28;20202;-76
2021/11/02 15:29:21;;;;;;;1.40;1.23;;;;;;;10.81;75.51;99320.66;5052220;28;20320;-76
2021/11/02 15:31:56;;;;;;;2.40;1.27;;;;;;;10.74;75.51;99322.63;5054607;28;20209;-76
2021/11/02 15:34:23;;;;;;;4.27;1.03;;;;;;;10.59;75.67;99316.25;5054282;28;20278;-76
2021/11/02 15:37:02;;;;;;;2.97;1.10;;;;;;;10.48;76.36;99305.34;5054909;28;20268;-76
2021/11/02 15:39:29;;;;;;;1.10;1.00;;;;;;;10.40;76.15;99289.97;5054657;28;20309;-75
2021/11/02 15:41:55;;;;;;;1.20;1.00;;;;;;;10.39;76.24;99301.31;5054809;28;20205;-76
2021/11/02 15:44:26;;;;;;;2.43;1.20;;;;;;;10.35;76.50;99289.31;5055018;28;20323;-76
2021/11/02 15:46:53;;;;;;;1.37;0.97;;;;;;;10.36;76.52;99288.38;5054748;28;20211;-76
2021/11/02 15:49:23;;;;;;;1.23;1.00;;;;;;;10.42;76.41;99277.72;5054360;28;20226;-76
2021/11/02 15:51:54;;;;;;;5.23;1.37;;;;;;;10.45;76.35;99292.44;5054335;28;20714;-76
2021/11/02 15:54:21;;;;;;;4.67;1.20;;;;;;;10.45;76.34;99292.44;5054640;28;20229;-76
2021/11/02 15:56:47;;;;;;;1.80;0.80;;;;;;;10.42;76.57;99287.31;5054332;28;20626;-76
2021/11/02 15:59:14;;;;;;;1.53;1.00;;;;;;;10.38;76.10;99290.94;5053908;28;20230;-76
2021/11/02 16:01:43;;;;;;;1.10;1.00;;;;;;;10.28;76.42;99291.22;5054129;28;20676;-76
2021/11/02 16:04:14;;;;;;;2.13;1.17;;;;;;;10.29;76.57;99290.34;5056112;28;20197;-76
2021/11/02 16:07:01;;;;;;;2.40;1.10;;;;;;;10.18;76.61;99283.81;5054455;28;20237;-76
2021/11/02 16:09:45;;;;;;;1.40;1.07;;;;;;;10.08;76.91;99285.88;5054342;28;20315;-76
2021/11/02 16:12:13;;;;;;;1.87;1.00;;;;;;;9.96;77.73;99260.25;5052722;28;21350;-76
2021/11/02 16:14:50;;;;;;;2.87;1.10;;;;;;;9.85;78.09;99235.44;5053696;28;20219;-76